createdAt,value
2024-03-16T00:01:56.256Z,97001.66
2024-03-16T00:04:24.050Z,96995.88
2024-03-16T00:06:51.867Z,96990.75
2024-03-16T00:09:21.128Z,96990.25
2024-03-16T00:11:49.143Z,96986.44
2024-03-16T00:14:16.901Z,96991.13
2024-03-16T00:16:44.661Z,96994.41
2024-03-16T00:19:12.489Z,96990.28
2024-03-16T00:21:40.353Z,96991.81
2024-03-16T00:24:09.286Z,97002.22
2024-03-16T00:26:37.072Z,97021.56
2024-03-16T00:29:08.296Z,97025.88
2024-03-16T00:31:36.209Z,97013.19
2024-03-16T00:34:05.383Z,97017.16
2024-03-16T00:36:33.411Z,97024.16
2024-03-16T00:39:01.237Z,97027.59
2024-03-16T00:41:28.967Z,97030.03
2024-03-16T00:43:56.702Z,97019.84
2024-03-16T00:46:24.446Z,97029.72
2024-03-16T00:48:52.320Z,97033.44
2024-03-16T00:51:20.221Z,97034.16
2024-03-16T00:53:47.946Z,97037.69
2024-03-16T00:56:15.742Z,97037.41
2024-03-16T00:58:43.462Z,97033.75
2024-03-16T01:01:12.017Z,97020.88
2024-03-16T01:03:39.841Z,97003.63
2024-03-16T01:06:07.603Z,96991.59
2024-03-16T01:08:35.402Z,96980.88
2024-03-16T01:11:03.827Z,96981.97
2024-03-16T01:13:31.706Z,96978.19
2024-03-16T01:15:59.513Z,96982.78
2024-03-16T01:18:27.332Z,96977.66
2024-03-16T01:20:55.300Z,96967.72
2024-03-16T01:23:23.006Z,96978.22
2024-03-16T01:25:50.831Z,96968.91
2024-03-16T01:28:18.605Z,96969.97
2024-03-16T01:30:46.330Z,96970.91
2024-03-16T01:33:14.360Z,96970.91
2024-03-16T01:35:42.085Z,96976.63
2024-03-16T01:38:09.845Z,96984.84
2024-03-16T01:40:37.607Z,96998.97
2024-03-16T01:43:05.664Z,96992.00
2024-03-16T01:45:33.558Z,96986.41
2024-03-16T01:48:04.614Z,96986.78
2024-03-16T01:50:32.367Z,96976.13
2024-03-16T01:53:00.164Z,96970.91
2024-03-16T01:55:27.877Z,96969.03
2024-03-16T01:57:55.696Z,96965.81
2024-03-16T02:00:23.679Z,96961.84
2024-03-16T02:02:51.490Z,96963.56
2024-03-16T02:05:19.459Z,96952.66
2024-03-16T02:07:47.281Z,96957.94
2024-03-16T02:10:15.043Z,96963.63
2024-03-16T02:12:42.912Z,96964.63
2024-03-16T02:15:11.058Z,96954.91
2024-03-16T02:17:38.862Z,96951.31
2024-03-16T02:20:16.414Z,96955.03
2024-03-16T02:22:44.275Z,96944.94
2024-03-16T02:25:12.449Z,96944.03
2024-03-16T02:27:40.376Z,96952.47
2024-03-16T02:30:11.022Z,96955.69
2024-03-16T02:32:38.847Z,96961.09
2024-03-16T02:35:09.104Z,96952.38
2024-03-16T02:37:36.961Z,96955.63
2024-03-16T02:40:06.686Z,96960.50
2024-03-16T02:42:33.588Z,96963.22
2024-03-16T02:45:01.317Z,96967.75
2024-03-16T02:47:29.193Z,96981.94
2024-03-16T02:49:57.046Z,96968.53
2024-03-16T02:52:25.064Z,96980.16
2024-03-16T02:54:52.764Z,96986.91
2024-03-16T02:57:20.540Z,96990.84
2024-03-16T02:59:48.314Z,96986.13
2024-03-16T03:02:16.110Z,96988.13
2024-03-16T03:04:43.869Z,96998.03
2024-03-16T03:07:11.811Z,96985.13
2024-03-16T03:09:39.583Z,96983.97
2024-03-16T03:12:07.556Z,96977.88
2024-03-16T03:14:35.365Z,96978.47
2024-03-16T03:17:03.091Z,96981.47
2024-03-16T03:19:30.912Z,96990.41
2024-03-16T03:21:58.745Z,96985.28
2024-03-16T03:24:26.490Z,96980.53
2024-03-16T03:26:55.374Z,96974.97
2024-03-16T03:29:23.897Z,96984.63
2024-03-16T03:31:51.690Z,96984.72
2024-03-16T03:34:19.517Z,96988.09
2024-03-16T03:36:47.365Z,96978.28
2024-03-16T03:39:16.792Z,96976.41
2024-03-16T03:41:44.687Z,96983.56
2024-03-16T03:44:22.585Z,96991.22
2024-03-16T03:46:53.492Z,96989.50
2024-03-16T03:49:33.797Z,96997.34
2024-03-16T03:52:05.382Z,97001.31
2024-03-16T03:54:34.306Z,97011.75
2024-03-16T03:57:02.296Z,97009.59
2024-03-16T03:59:30.128Z,97000.00
2024-03-16T04:01:57.975Z,97007.38
2024-03-16T04:04:25.759Z,97008.44
2024-03-16T04:06:53.556Z,97010.22
2024-03-16T04:09:21.290Z,97010.34
2024-03-16T04:11:49.107Z,97017.16
2024-03-16T04:14:16.944Z,97013.22
2024-03-16T04:16:44.798Z,97019.19
2024-03-16T04:19:12.768Z,97019.69
2024-03-16T04:21:40.681Z,97014.91
2024-03-16T04:24:08.516Z,97014.78
2024-03-16T04:26:36.283Z,97010.63
2024-03-16T04:29:04.029Z,97011.13
2024-03-16T04:31:33.130Z,97013.00
2024-03-16T04:34:01.036Z,97017.94
2024-03-16T04:36:28.938Z,97022.34
2024-03-16T04:38:56.829Z,97019.69
2024-03-16T04:41:24.743Z,97018.31
2024-03-16T04:43:52.737Z,97023.44
2024-03-16T04:46:20.827Z,97031.06
2024-03-16T04:48:48.580Z,97036.53
2024-03-16T04:51:16.632Z,97038.38
2024-03-16T04:53:44.501Z,97034.72
2024-03-16T04:56:12.307Z,97032.03
2024-03-16T04:58:40.087Z,97034.66
2024-03-16T05:01:10.410Z,97041.25
2024-03-16T05:03:38.308Z,97040.88
2024-03-16T05:06:06.501Z,97043.66
2024-03-16T05:08:34.334Z,97053.25
2024-03-16T05:11:02.084Z,97046.13
2024-03-16T05:13:32.012Z,97054.47
2024-03-16T05:16:08.866Z,97058.03
2024-03-16T05:18:37.001Z,97054.56
2024-03-16T05:21:05.822Z,97058.63
2024-03-16T05:23:33.647Z,97051.91
2024-03-16T05:26:01.960Z,97057.97
2024-03-16T05:28:29.790Z,97053.69
2024-03-16T05:30:57.718Z,97057.97
2024-03-16T05:33:25.435Z,97053.56
2024-03-16T05:35:53.280Z,97064.91
2024-03-16T05:38:21.240Z,97057.25
2024-03-16T05:40:49.030Z,97054.84
2024-03-16T05:43:16.914Z,97063.34
2024-03-16T05:45:44.784Z,97072.00
2024-03-16T05:48:12.585Z,97082.81
2024-03-16T05:50:40.437Z,97084.63
2024-03-16T05:53:08.160Z,97079.34
2024-03-16T05:55:35.972Z,97088.66
2024-03-16T05:58:03.816Z,97098.69
2024-03-16T06:00:31.682Z,97096.72
2024-03-16T06:02:59.420Z,97096.66
2024-03-16T06:05:27.127Z,97099.88
2024-03-16T06:07:54.852Z,97094.03
2024-03-16T06:10:22.700Z,97091.94
2024-03-16T06:12:51.143Z,97093.56
2024-03-16T06:15:18.954Z,97096.41
2024-03-16T06:17:47.371Z,97101.38
2024-03-16T06:20:16.460Z,97104.38
2024-03-16T06:22:45.822Z,97113.25
2024-03-16T06:25:14.239Z,97109.31
2024-03-16T06:27:50.460Z,97112.41
2024-03-16T06:30:18.306Z,97116.25
2024-03-16T06:33:06.782Z,97120.53
2024-03-16T06:35:34.790Z,97128.25
2024-03-16T06:38:02.565Z,97138.06
2024-03-16T06:40:30.744Z,97137.13
2024-03-16T06:42:58.545Z,97137.53
2024-03-16T06:45:26.288Z,97144.63
2024-03-16T06:47:54.522Z,97135.03
2024-03-16T06:50:23.030Z,97145.69
2024-03-16T06:52:50.842Z,97140.75
2024-03-16T06:55:19.475Z,97147.94
2024-03-16T06:57:47.587Z,97154.00
2024-03-16T07:00:15.895Z,97150.78
2024-03-16T07:02:43.719Z,97150.13
2024-03-16T07:05:12.303Z,97154.44
2024-03-16T07:07:41.121Z,97154.94
2024-03-16T07:10:09.434Z,97163.81
2024-03-16T07:12:37.404Z,97165.97
2024-03-16T07:15:07.044Z,97172.84
2024-03-16T07:17:34.867Z,97172.19
2024-03-16T07:20:03.573Z,97179.84
2024-03-16T07:22:31.295Z,97181.63
2024-03-16T07:24:59.014Z,97196.97
2024-03-16T07:27:27.033Z,97192.91
2024-03-16T07:29:54.800Z,97204.09
2024-03-16T07:32:23.601Z,97196.22
2024-03-16T07:34:51.417Z,97210.75
2024-03-16T07:37:19.288Z,97212.13
2024-03-16T07:39:47.121Z,97213.06
2024-03-16T07:42:15.040Z,97203.44
2024-03-16T07:44:42.872Z,97209.47
2024-03-16T07:47:10.608Z,97201.91
2024-03-16T07:49:38.343Z,97216.84
2024-03-16T07:52:06.759Z,97214.97
2024-03-16T07:54:34.598Z,97223.13
2024-03-16T07:57:02.782Z,97228.78
2024-03-16T07:59:30.511Z,97235.03
2024-03-16T08:01:58.285Z,97234.50
2024-03-16T08:04:26.175Z,97231.63
2024-03-16T08:06:53.973Z,97235.41
2024-03-16T08:09:24.093Z,97242.22
2024-03-16T08:11:52.638Z,97235.84
2024-03-16T08:14:21.604Z,97248.06
2024-03-16T08:16:49.405Z,97244.38
2024-03-16T08:19:18.086Z,97246.69
2024-03-16T08:21:46.330Z,97253.47
2024-03-16T08:24:14.234Z,97261.31
2024-03-16T08:26:42.126Z,97259.56
2024-03-16T08:29:10.069Z,97252.09
2024-03-16T08:31:37.958Z,97256.63
2024-03-16T08:34:06.207Z,97258.56
2024-03-16T08:36:34.118Z,97255.22
2024-03-16T08:39:04.456Z,97256.59
2024-03-16T08:41:32.295Z,97251.78
2024-03-16T08:44:00.128Z,97266.94
2024-03-16T08:46:28.340Z,97252.38
2024-03-16T08:48:56.461Z,97258.59
2024-03-16T08:51:25.547Z,97248.81
2024-03-16T08:53:53.344Z,97253.44
2024-03-16T08:56:21.241Z,97249.94
2024-03-16T08:58:50.501Z,97252.53
2024-03-16T09:01:18.831Z,97250.75
2024-03-16T09:03:46.790Z,97261.50
2024-03-16T09:06:15.487Z,97268.16
2024-03-16T09:08:43.341Z,97264.50
2024-03-16T09:11:12.530Z,97262.44
2024-03-16T09:13:40.347Z,97263.56
2024-03-16T09:16:08.334Z,97265.22
2024-03-16T09:18:36.396Z,97262.88
2024-03-16T09:21:04.642Z,97268.00
2024-03-16T09:23:32.544Z,97274.66
2024-03-16T09:26:02.251Z,97274.47
2024-03-16T09:28:30.084Z,97275.28
2024-03-16T09:30:57.911Z,97264.13
2024-03-16T09:33:26.360Z,97271.31
2024-03-16T09:35:54.627Z,97280.69
2024-03-16T09:38:24.176Z,97278.25
2024-03-16T09:40:56.482Z,97280.09
